createdAt,value
2019-05-30T00:00:51.174Z,3.12
2019-05-30T00:03:19.704Z,3.30
2019-05-30T00:05:48.091Z,2.42
2019-05-30T00:08:16.557Z,3.02
2019-05-30T00:10:46.078Z,3.20
2019-05-30T00:13:14.433Z,2.72
2019-05-30T00:15:42.811Z,3.52
2019-05-30T00:18:11.285Z,2.98
2019-05-30T00:20:39.663Z,3.40
2019-05-30T00:23:09.194Z,3.20
2019-05-30T00:25:37.873Z,3.33
2019-05-30T00:28:07.483Z,3.42
2019-05-30T00:30:36.078Z,3.75
2019-05-30T00:33:05.143Z,3.00
2019-05-30T00:35:33.865Z,2.75
2019-05-30T00:38:02.328Z,2.40
2019-05-30T00:40:30.721Z,3.00
2019-05-30T00:43:00.053Z,2.92
2019-05-30T00:45:28.445Z,3.17
2019-05-30T00:47:57.970Z,2.70
2019-05-30T00:50:26.457Z,2.47
2019-05-30T00:52:54.834Z,2.90
2019-05-30T00:55:24.175Z,2.80
2019-05-30T00:57:52.471Z,2.47
2019-05-30T01:00:20.789Z,3.00
2019-05-30T01:02:49.217Z,3.00
2019-05-30T01:05:17.646Z,2.72
2019-05-30T01:07:46.033Z,3.30
2019-05-30T01:10:14.423Z,2.83
2019-05-30T01:12:42.899Z,3.30
2019-05-30T01:15:11.369Z,3.00
2019-05-30T01:17:39.762Z,3.40
2019-05-30T01:20:08.538Z,3.17
2019-05-30T01:22:36.917Z,2.83
2019-05-30T01:25:07.653Z,2.47
2019-05-30T01:27:36.333Z,2.62
2019-05-30T01:30:06.228Z,2.50
2019-05-30T01:32:34.471Z,2.72
2019-05-30T01:35:03.885Z,2.12
2019-05-30T01:37:32.280Z,2.00
2019-05-30T01:40:01.798Z,3.25
2019-05-30T01:42:30.288Z,2.40
2019-05-30T01:45:00.119Z,2.65
2019-05-30T01:47:28.620Z,2.72
2019-05-30T01:49:58.147Z,2.30
2019-05-30T01:52:26.679Z,2.35
2019-05-30T01:54:55.036Z,2.27
2019-05-30T01:57:23.446Z,2.40
2019-05-30T01:59:51.787Z,2.50
2019-05-30T02:02:20.082Z,2.65
2019-05-30T02:04:48.443Z,3.10
2019-05-30T02:07:16.727Z,2.50
2019-05-30T02:09:45.038Z,2.58
2019-05-30T02:12:13.308Z,2.65
2019-05-30T02:14:41.623Z,2.52
2019-05-30T02:17:10.118Z,2.05
2019-05-30T02:19:38.628Z,2.47
2019-05-30T02:22:08.027Z,2.00
2019-05-30T02:24:36.640Z,1.80
2019-05-30T02:27:06.248Z,2.27
2019-05-30T02:29:34.795Z,2.10
2019-05-30T02:32:04.863Z,2.02
2019-05-30T02:34:34.249Z,1.90
2019-05-30T02:37:03.433Z,2.05
2019-05-30T02:39:32.627Z,1.85
2019-05-30T02:42:01.022Z,2.22
2019-05-30T02:44:29.286Z,2.20
2019-05-30T02:47:01.416Z,2.05
2019-05-30T02:49:30.378Z,2.30
2019-05-30T02:51:58.684Z,2.27
2019-05-30T02:54:26.991Z,1.90
2019-05-30T02:56:55.478Z,2.40
2019-05-30T02:59:23.766Z,1.82
2019-05-30T03:02:01.302Z,1.95
2019-05-30T03:04:22.167Z,1.82
2019-05-30T03:06:50.523Z,1.95
2019-05-30T03:09:18.925Z,1.87
2019-05-30T03:11:47.377Z,1.82
2019-05-30T03:14:19.576Z,1.72
2019-05-30T03:16:45.794Z,1.60
2019-05-30T03:19:14.257Z,1.60
2019-05-30T03:21:42.639Z,1.70
2019-05-30T03:24:12.381Z,1.90
2019-05-30T03:26:41.033Z,1.65
2019-05-30T03:29:10.076Z,1.60
2019-05-30T03:31:39.411Z,2.02
2019-05-30T03:34:16.503Z,1.37
2019-05-30T03:36:37.710Z,2.10
2019-05-30T03:39:07.650Z,2.08
2019-05-30T03:41:36.600Z,1.50
2019-05-30T03:44:05.976Z,2.02
2019-05-30T03:46:39.547Z,1.50
2019-05-30T03:49:12.890Z,1.75
2019-05-30T03:51:42.862Z,1.85
2019-05-30T03:54:13.327Z,1.65
2019-05-30T03:56:45.951Z,1.62
2019-05-30T03:59:15.696Z,1.90
2019-05-30T04:01:57.576Z,1.40
2019-05-30T04:04:30.454Z,1.50
2019-05-30T04:07:00.372Z,1.50
2019-05-30T04:09:30.175Z,2.12
2019-05-30T04:12:19.973Z,1.80
2019-05-30T04:14:50.183Z,1.90
2019-05-30T04:17:19.942Z,1.90
2019-05-30T04:19:48.559Z,2.08
2019-05-30T04:22:16.873Z,1.90
2019-05-30T04:24:45.214Z,1.80
2019-05-30T04:27:13.924Z,1.90
2019-05-30T04:29:42.282Z,1.70
2019-05-30T04:32:12.389Z,1.85
2019-05-30T04:34:40.534Z,1.80
2019-05-30T04:37:10.517Z,1.85
2019-05-30T04:39:38.792Z,2.08
2019-05-30T04:42:07.130Z,2.10
2019-05-30T04:44:35.546Z,2.50
2019-05-30T04:47:03.957Z,1.20
2019-05-30T04:49:32.333Z,1.57
2019-05-30T04:52:00.554Z,1.80
2019-05-30T04:54:28.861Z,1.60
2019-05-30T04:56:57.321Z,1.90
2019-05-30T04:59:25.543Z,1.42
2019-05-30T05:01:53.860Z,1.80
2019-05-30T05:04:22.200Z,1.70
2019-05-30T05:06:50.404Z,1.65
2019-05-30T05:09:20.143Z,1.60
2019-05-30T05:11:48.753Z,1.72
2019-05-30T05:14:18.366Z,1.67
2019-05-30T05:16:46.872Z,1.67
2019-05-30T05:19:15.296Z,1.37
2019-05-30T05:21:43.618Z,1.35
2019-05-30T05:24:13.321Z,1.37
2019-05-30T05:26:41.639Z,1.12
2019-05-30T05:29:11.772Z,1.40
2019-05-30T05:31:40.063Z,1.47
2019-05-30T05:34:08.334Z,1.40
2019-05-30T05:36:36.791Z,1.50
2019-05-30T05:39:06.311Z,1.55
2019-05-30T05:41:34.695Z,1.10
2019-05-30T05:44:03.127Z,1.12
2019-05-30T05:46:31.427Z,1.42
2019-05-30T05:48:59.738Z,1.55
2019-05-30T05:51:29.017Z,1.40
2019-05-30T05:53:57.580Z,1.40
2019-05-30T05:56:25.912Z,1.60
2019-05-30T05:58:54.366Z,1.25
2019-05-30T06:01:23.388Z,1.37
2019-05-30T06:03:51.741Z,1.40
2019-05-30T06:06:21.198Z,1.40
2019-05-30T06:08:49.710Z,1.10
2019-05-30T06:11:18.615Z,1.12
2019-05-30T06:13:47.080Z,1.00
2019-05-30T06:16:19.877Z,1.00
2019-05-30T06:18:49.220Z,1.30
2019-05-30T06:21:19.169Z,1.05
2019-05-30T06:23:47.764Z,1.00
2019-05-30T06:26:16.111Z,1.12
2019-05-30T06:28:44.359Z,1.10
2019-05-30T06:31:12.588Z,0.85
2019-05-30T06:33:40.891Z,1.30
2019-05-30T06:36:09.250Z,1.20
2019-05-30T06:38:37.555Z,1.30
2019-05-30T06:41:05.855Z,0.82
2019-05-30T06:43:34.201Z,0.80
2019-05-30T06:46:02.685Z,0.90
2019-05-30T06:48:31.076Z,1.27
2019-05-30T06:50:59.435Z,1.60
2019-05-30T06:53:27.645Z,1.60
2019-05-30T06:55:55.986Z,1.55
2019-05-30T06:58:41.385Z,1.00
2019-05-30T07:00:54.585Z,1.27
2019-05-30T07:03:24.124Z,1.05
2019-05-30T07:05:53.032Z,1.00
2019-05-30T07:08:22.663Z,0.95
2019-05-30T07:10:51.255Z,0.95
2019-05-30T07:13:19.510Z,1.20
2019-05-30T07:15:47.745Z,1.20
2019-05-30T07:18:16.002Z,0.80
2019-05-30T07:20:44.260Z,0.90
2019-05-30T07:23:12.656Z,0.93
2019-05-30T07:25:40.843Z,0.90
2019-05-30T07:28:09.099Z,0.90
2019-05-30T07:30:38.612Z,0.80
2019-05-30T07:33:06.958Z,1.02
2019-05-30T07:35:35.478Z,0.80
2019-05-30T07:38:03.961Z,0.80
2019-05-30T07:40:32.821Z,0.88
2019-05-30T07:43:01.213Z,0.80
2019-05-30T07:45:29.584Z,0.90
2019-05-30T07:47:58.080Z,0.80
2019-05-30T07:50:26.397Z,0.75
2019-05-30T07:52:54.797Z,0.72
2019-05-30T07:55:23.197Z,0.60
2019-05-30T07:57:51.493Z,0.80
2019-05-30T08:00:20.977Z,0.45
2019-05-30T08:02:49.356Z,0.42
2019-05-30T08:05:24.310Z,0.70
2019-05-30T08:07:47.681Z,0.50
2019-05-30T08:10:16.143Z,0.60
2019-05-30T08:12:44.529Z,0.80
2019-05-30T08:15:12.877Z,0.80
2019-05-30T08:17:44.272Z,0.68
2019-05-30T08:20:12.417Z,0.70
2019-05-30T08:22:40.819Z,0.70
2019-05-30T08:25:09.696Z,0.55
2019-05-30T08:27:38.647Z,0.70
2019-05-30T08:30:08.828Z,0.90
2019-05-30T08:32:38.943Z,0.57
2019-05-30T08:35:07.823Z,0.57
2019-05-30T08:37:37.282Z,0.65
2019-05-30T08:40:07.290Z,0.95
2019-05-30T08:42:35.566Z,0.72
2019-05-30T08:45:05.430Z,0.82
2019-05-30T08:47:34.051Z,0.78
2019-05-30T08:50:02.699Z,0.68
2019-05-30T08:52:32.349Z,0.75
2019-05-30T08:55:00.896Z,0.80
2019-05-30T08:57:30.324Z,0.70
2019-05-30T08:59:58.984Z,0.72
2019-05-30T09:02:27.459Z,0.78
2019-05-30T09:04:55.822Z,1.00
2019-05-30T09:07:24.113Z,0.88
2019-05-30T09:09:52.494Z,0.70
2019-05-30T09:12:20.851Z,0.75
2019-05-30T09:14:49.113Z,0.80
2019-05-30T09:17:17.516Z,0.80
2019-05-30T09:19:47.472Z,0.93
2019-05-30T09:22:16.856Z,0.90
2019-05-30T09:24:46.050Z,0.53
2019-05-30T09:27:14.440Z,0.70
2019-05-30T09:29:42.946Z,0.98
2019-05-30T09:32:12.820Z,0.80
2019-05-30T09:34:42.016Z,0.78
2019-05-30T09:37:11.210Z,0.88
2019-05-30T09:39:40.485Z,0.82
2019-05-30T09:42:09.853Z,0.68
2019-05-30T09:44:38.170Z,0.70
2019-05-30T09:47:07.572Z,0.80
2019-05-30T09:49:35.874Z,0.70
2019-05-30T09:52:04.531Z,0.80
2019-05-30T09:54:32.805Z,0.57
2019-05-30T09:57:01.187Z,0.70
2019-05-30T09:59:29.434Z,0.50
2019-05-30T10:01:57.839Z,0.50
2019-05-30T10:04:26.452Z,0.80
2019-05-30T10:06:56.684Z,0.90
2019-05-30T10:09:24.950Z,0.95
2019-05-30T10:11:53.512Z,1.15
2019-05-30T10:14:21.726Z,0.80
2019-05-30T10:16:53.353Z,0.85
2019-05-30T10:19:20.076Z,1.00
2019-05-30T10:21:49.022Z,1.30
2019-05-30T10:24:17.455Z,0.93
2019-05-30T10:26:47.110Z,0.98
2019-05-30T10:29:15.742Z,0.75
2019-05-30T10:31:44.997Z,1.02
2019-05-30T10:34:13.748Z,0.70
2019-05-30T10:36:44.606Z,0.50
2019-05-30T10:39:11.940Z,0.70
2019-05-30T10:41:40.258Z,0.90
2019-05-30T10:44:08.571Z,1.20
2019-05-30T10:46:36.786Z,0.98
2019-05-30T10:49:05.230Z,0.98
2019-05-30T10:51:33.669Z,0.90
2019-05-30T10:54:01.906Z,0.82
2019-05-30T10:56:30.381Z,0.80
2019-05-30T10:58:58.631Z,1.00
2019-05-30T11:01:26.952Z,0.70
2019-05-30T11:03:55.416Z,0.90
2019-05-30T11:06:41.726Z,0.90
2019-05-30T11:09:10.176Z,0.90
2019-05-30T11:11:38.551Z,0.70
2019-05-30T11:14:06.952Z,1.00
2019-05-30T11:16:35.174Z,1.30
2019-05-30T11:19:07.364Z,0.82
2019-05-30T11:21:34.497Z,0.88
2019-05-30T11:24:02.821Z,1.02
2019-05-30T11:26:31.088Z,0.90
2019-05-30T11:28:59.396Z,1.05
2019-05-30T11:31:27.631Z,1.05
2019-05-30T11:33:57.149Z,1.00
2019-05-30T11:36:25.538Z,0.90
2019-05-30T11:38:53.793Z,0.80
2019-05-30T11:41:22.101Z,0.80
2019-05-30T11:43:51.501Z,0.80
2019-05-30T11:46:20.476Z,1.10
2019-05-30T11:48:49.542Z,1.00
2019-05-30T11:51:17.896Z,1.10
2019-05-30T11:53:46.316Z,0.88
2019-05-30T11:56:14.697Z,0.90
2019-05-30T11:58:42.967Z,0.68
2019-05-30T12:01:11.351Z,0.80
2019-05-30T12:03:39.627Z,0.90
2019-05-30T12:06:07.978Z,0.70
2019-05-30T12:08:36.246Z,0.70
2019-05-30T12:11:04.485Z,0.70
2019-05-30T12:13:32.850Z,0.90
2019-05-30T12:16:01.818Z,0.82
2019-05-30T12:18:30.436Z,1.05
2019-05-30T12:20:59.850Z,0.80
2019-05-30T12:23:28.403Z,0.70
2019-05-30T12:25:57.946Z,0.80
2019-05-30T12:28:27.136Z,0.78
2019-05-30T12:31:02.619Z,0.85
2019-05-30T12:33:27.122Z,1.00
2019-05-30T12:35:56.450Z,0.88
2019-05-30T12:38:24.870Z,0.75
2019-05-30T12:40:53.191Z,0.90
2019-05-30T12:43:21.505Z,0.78
2019-05-30T12:45:49.779Z,0.95
2019-05-30T12:48:18.076Z,1.00
2019-05-30T12:50:47.079Z,0.82
2019-05-30T12:53:16.553Z,0.80
2019-05-30T12:55:46.590Z,0.60
2019-05-30T12:58:14.862Z,0.82
2019-05-30T13:00:45.254Z,0.88
2019-05-30T13:03:13.635Z,0.72
2019-05-30T13:05:42.040Z,0.90
2019-05-30T13:08:21.320Z,0.70
2019-05-30T13:10:41.977Z,0.82
2019-05-30T13:13:10.389Z,1.00
2019-05-30T13:15:39.776Z,0.80
2019-05-30T13:18:08.187Z,0.98
2019-05-30T13:20:36.494Z,1.02
2019-05-30T13:23:04.827Z,0.70
2019-05-30T13:25:33.222Z,0.93
2019-05-30T13:28:04.765Z,0.82
2019-05-30T13:30:31.667Z,1.20
2019-05-30T13:33:00.874Z,0.80
2019-05-30T13:35:29.529Z,1.10
2019-05-30T13:37:58.953Z,0.70
2019-05-30T13:40:27.513Z,0.90
2019-05-30T13:42:58.244Z,0.70
2019-05-30T13:45:27.227Z,0.90
2019-05-30T13:47:56.637Z,0.78
2019-05-30T13:50:25.623Z,0.72
2019-05-30T13:52:54.533Z,1.07
2019-05-30T13:55:23.142Z,1.17
2019-05-30T13:57:51.536Z,0.65
2019-05-30T14:00:22.571Z,0.90
2019-05-30T14:02:51.089Z,0.85
2019-05-30T14:05:19.563Z,0.80
2019-05-30T14:07:50.169Z,0.90
2019-05-30T14:10:23.292Z,0.95
2019-05-30T14:12:52.649Z,1.15
2019-05-30T14:15:21.595Z,1.22
2019-05-30T14:17:53.838Z,0.98
2019-05-30T14:20:25.121Z,0.82
2019-05-30T14:22:55.026Z,0.82
2019-05-30T14:25:24.003Z,0.70
2019-05-30T14:27:52.514Z,1.17
2019-05-30T14:30:23.834Z,0.80
2019-05-30T14:32:53.543Z,0.98
2019-05-30T14:35:21.842Z,0.95
2019-05-30T14:37:50.196Z,1.20
2019-05-30T14:40:19.276Z,0.80
2019-05-30T14:42:47.679Z,0.50
2019-05-30T14:45:17.094Z,0.90
2019-05-30T14:47:46.014Z,0.78
2019-05-30T14:50:14.987Z,0.88
2019-05-30T14:52:43.457Z,0.78
2019-05-30T14:55:13.645Z,0.80
2019-05-30T14:57:45.147Z,1.02
2019-05-30T15:00:15.851Z,0.70
2019-05-30T15:02:44.547Z,1.07
2019-05-30T15:05:15.726Z,0.80
2019-05-30T15:07:44.651Z,0.90
2019-05-30T15:10:14.907Z,1.10
2019-05-30T15:12:43.588Z,0.80
2019-05-30T15:15:16.526Z,0.70
2019-05-30T15:17:46.795Z,0.65
2019-05-30T15:20:16.133Z,0.70
2019-05-30T15:22:44.670Z,0.82
2019-05-30T15:25:17.378Z,1.20
2019-05-30T15:27:45.762Z,0.75
2019-05-30T15:30:14.981Z,0.80
2019-05-30T15:32:44.058Z,1.00
2019-05-30T15:35:15.589Z,0.72
2019-05-30T15:37:53.588Z,0.65
2019-05-30T15:40:23.394Z,0.93
2019-05-30T15:43:16.001Z,0.90
2019-05-30T15:45:45.256Z,0.62
2019-05-30T15:48:14.293Z,0.75
2019-05-30T15:50:42.979Z,0.68
2019-05-30T15:53:12.991Z,0.98
2019-05-30T15:55:42.685Z,0.80
2019-05-30T15:58:11.420Z,0.70
2019-05-30T16:00:39.984Z,0.95
2019-05-30T16:03:08.370Z,1.00
2019-05-30T16:05:36.738Z,0.80
2019-05-30T16:08:05.211Z,1.07
2019-05-30T16:10:36.642Z,0.80
2019-05-30T16:13:04.508Z,0.90
2019-05-30T16:15:34.460Z,1.05
2019-05-30T16:18:02.683Z,0.80
2019-05-30T16:20:31.117Z,0.88
2019-05-30T16:22:59.478Z,1.10
2019-05-30T16:25:28.023Z,1.12
2019-05-30T16:27:56.310Z,0.80
2019-05-30T16:30:26.037Z,1.25
2019-05-30T16:32:55.022Z,1.05
2019-05-30T16:35:23.580Z,0.75
2019-05-30T16:37:52.152Z,0.98
2019-05-30T16:40:20.933Z,1.12
2019-05-30T16:42:49.746Z,0.80
2019-05-30T16:45:21.763Z,0.80
2019-05-30T16:47:49.324Z,0.80
2019-05-30T16:50:20.590Z,0.90
2019-05-30T16:52:48.958Z,0.75
2019-05-30T16:55:17.479Z,0.70
2019-05-30T16:57:45.846Z,1.10
2019-05-30T17:00:15.609Z,0.82
2019-05-30T17:02:44.134Z,0.88
2019-05-30T17:05:12.605Z,0.80
2019-05-30T17:07:40.994Z,0.90
2019-05-30T17:10:22.341Z,1.20
2019-05-30T17:12:39.581Z,1.00
2019-05-30T17:15:08.306Z,1.07
2019-05-30T17:17:36.748Z,1.20
2019-05-30T17:20:08.565Z,1.10
2019-05-30T17:22:37.087Z,1.25
2019-05-30T17:25:06.976Z,0.90
2019-05-30T17:27:35.882Z,1.52
2019-05-30T17:30:07.796Z,1.05
2019-05-30T17:32:36.250Z,1.50
2019-05-30T17:35:05.599Z,1.25
2019-05-30T17:37:33.903Z,1.47
2019-05-30T17:40:02.227Z,1.20
2019-05-30T17:42:31.687Z,1.27
2019-05-30T17:45:00.888Z,1.25
2019-05-30T17:47:29.529Z,1.55
2019-05-30T17:49:58.035Z,1.52
2019-05-30T17:52:27.935Z,1.25
2019-05-30T17:54:56.441Z,1.12
2019-05-30T17:57:25.803Z,1.42
2019-05-30T17:59:54.263Z,1.17
2019-05-30T18:02:22.668Z,1.40
2019-05-30T18:04:50.990Z,1.17
2019-05-30T18:07:20.817Z,1.60
2019-05-30T18:09:49.296Z,1.35
2019-05-30T18:12:17.645Z,2.27
2019-05-30T18:14:46.073Z,2.90
2019-05-30T18:17:14.296Z,3.15
2019-05-30T18:19:42.538Z,2.67
2019-05-30T18:22:11.971Z,2.33
2019-05-30T18:24:41.111Z,1.90
2019-05-30T18:27:09.562Z,1.77
2019-05-30T18:29:37.841Z,1.45
2019-05-30T18:32:06.205Z,1.75
2019-05-30T18:34:34.594Z,1.32
2019-05-30T18:37:03.058Z,1.87
2019-05-30T18:39:31.366Z,1.40
2019-05-30T18:41:59.716Z,1.52
2019-05-30T18:44:31.005Z,1.50
2019-05-30T18:46:58.070Z,1.50
2019-05-30T18:49:27.132Z,1.50
2019-05-30T18:51:55.853Z,1.50
2019-05-30T18:54:24.439Z,1.57
2019-05-30T18:56:52.776Z,1.47
2019-05-30T18:59:21.258Z,1.47
2019-05-30T19:01:49.693Z,1.60
2019-05-30T19:04:18.179Z,1.85
2019-05-30T19:06:46.517Z,1.75
2019-05-30T19:09:14.947Z,1.75
2019-05-30T19:11:43.474Z,1.98
2019-05-30T19:14:11.830Z,2.17
2019-05-30T19:16:40.241Z,1.80
2019-05-30T19:19:08.756Z,2.10
2019-05-30T19:21:37.159Z,1.60
2019-05-30T19:24:06.574Z,2.15
2019-05-30T19:26:34.956Z,1.70
2019-05-30T19:29:03.357Z,1.70
2019-05-30T19:31:32.644Z,1.92
2019-05-30T19:34:01.139Z,2.10
2019-05-30T19:36:31.046Z,2.30
2019-05-30T19:38:59.717Z,2.52
2019-05-30T19:41:44.444Z,3.00
2019-05-30T19:43:58.180Z,3.90
2019-05-30T19:46:26.450Z,4.00
2019-05-30T19:48:54.932Z,4.28
2019-05-30T19:51:23.460Z,4.70
2019-05-30T19:53:51.883Z,4.47
2019-05-30T19:56:20.455Z,4.62
2019-05-30T19:58:49.534Z,3.77
2019-05-30T20:01:17.937Z,3.10
2019-05-30T20:03:47.119Z,2.60
2019-05-30T20:06:15.721Z,2.98
2019-05-30T20:08:54.804Z,2.80
2019-05-30T20:11:14.061Z,2.40
2019-05-30T20:13:42.318Z,2.77
2019-05-30T20:16:10.700Z,2.80
2019-05-30T20:18:39.753Z,2.70
2019-05-30T20:21:08.068Z,2.95
2019-05-30T20:23:51.771Z,2.55
2019-05-30T20:26:06.425Z,2.37
2019-05-30T20:28:34.889Z,2.50
2019-05-30T20:31:03.353Z,2.85
2019-05-30T20:33:31.926Z,3.25
2019-05-30T20:36:00.404Z,2.90
2019-05-30T20:38:28.782Z,2.90
2019-05-30T20:40:57.060Z,3.33
2019-05-30T20:43:25.553Z,3.00
2019-05-30T20:45:53.766Z,2.80
2019-05-30T20:48:22.187Z,3.00
2019-05-30T20:50:50.570Z,3.05
2019-05-30T20:53:20.518Z,3.12
2019-05-30T20:55:49.013Z,3.98
2019-05-30T20:58:17.460Z,3.35
2019-05-30T21:00:46.065Z,3.15
2019-05-30T21:03:14.508Z,3.35
2019-05-30T21:05:44.071Z,3.50
2019-05-30T21:08:12.905Z,3.52
2019-05-30T21:10:43.225Z,3.30
2019-05-30T21:13:11.829Z,3.20
2019-05-30T21:15:43.658Z,3.80
2019-05-30T21:18:11.226Z,3.22
2019-05-30T21:20:40.060Z,3.65
2019-05-30T21:23:08.592Z,4.40
2019-05-30T21:25:37.492Z,3.85
2019-05-30T21:28:06.384Z,4.15
2019-05-30T21:30:34.659Z,3.47
2019-05-30T21:33:03.069Z,3.60
2019-05-30T21:35:31.418Z,3.60
2019-05-30T21:37:59.803Z,3.33
2019-05-30T21:40:28.013Z,3.72
2019-05-30T21:43:05.889Z,3.80
2019-05-30T21:45:26.287Z,3.27
2019-05-30T21:47:54.602Z,3.60
2019-05-30T21:50:22.998Z,4.33
2019-05-30T21:52:51.306Z,3.50
2019-05-30T21:55:19.796Z,3.87
2019-05-30T21:57:48.191Z,4.03
2019-05-30T22:00:21.039Z,4.28
2019-05-30T22:02:56.176Z,4.17
2019-05-30T22:05:24.658Z,3.50
2019-05-30T22:07:53.046Z,3.77
2019-05-30T22:10:21.541Z,3.50
2019-05-30T22:12:49.902Z,4.25
2019-05-30T22:15:18.194Z,4.03
2019-05-30T22:17:47.778Z,4.83
2019-05-30T22:20:16.380Z,4.90
2019-05-30T22:22:46.022Z,4.78
2019-05-30T22:25:14.673Z,5.12
2019-05-30T22:27:44.331Z,4.95
2019-05-30T22:30:13.561Z,4.78
2019-05-30T22:32:42.607Z,4.95
2019-05-30T22:35:11.056Z,4.15
2019-05-30T22:37:39.420Z,4.33
2019-05-30T22:40:07.737Z,4.80
2019-05-30T22:42:36.182Z,4.55
2019-05-30T22:45:07.436Z,4.37
2019-05-30T22:47:35.802Z,3.72
2019-05-30T22:50:05.264Z,4.10
2019-05-30T22:52:33.581Z,4.00
2019-05-30T22:55:01.963Z,4.05
2019-05-30T22:57:30.252Z,4.12
2019-05-30T22:59:58.631Z,4.00
2019-05-30T23:02:26.890Z,3.77
2019-05-30T23:04:56.313Z,3.52
2019-05-30T23:07:24.717Z,3.75
2019-05-30T23:09:53.970Z,3.10
2019-05-30T23:12:22.572Z,3.60
2019-05-30T23:14:50.795Z,3.83
2019-05-30T23:17:19.124Z,3.70
2019-05-30T23:19:48.521Z,4.05
2019-05-30T23:22:18.020Z,3.45
2019-05-30T23:24:47.159Z,4.03
2019-05-30T23:27:15.701Z,3.50
2019-05-30T23:29:43.935Z,3.25
2019-05-30T23:32:12.265Z,3.65
2019-05-30T23:34:40.625Z,3.50
2019-05-30T23:37:08.910Z,3.67
2019-05-30T23:39:38.312Z,3.30
2019-05-30T23:42:06.589Z,3.33
2019-05-30T23:44:34.959Z,3.20
2019-05-30T23:47:03.333Z,3.05
2019-05-30T23:49:32.708Z,3.33
2019-05-30T23:52:01.239Z,3.90
2019-05-30T23:54:29.597Z,3.42
2019-05-30T23:56:58.597Z,3.42
2019-05-30T23:59:26.960Z,3.58
